Terminal Aerodrome Forecast
Issued by NWS

Home | Current Version | Previous Version | Text Only | Print | Product List | Glossary On
Versions: 1 2 3 4 5 6 7 8 9 10 11 12 13 14 15 16 17 18 19 20 21 22 23 24 25 26 27 28 29 30 31 32 33 34 35 36
000
FTUS42 KRAH 220933 AAC
TAFINT
TAF AMD
KINT 220933Z 2210/2306 29002KT 3SM BR SCT040 SCT250
      TEMPO 2210/2212 1SM BR SCT003
     FM221400 34011G19KT P6SM SKC
     FM230000 01007KT P6SM BKN250=

USA.gov is the U.S. government's official web portal to all federal, state and local government web resources and services.